Time;durP1;ratioP1;P1;durP2;ratioP2;P2;SDS_P1;SDS_P2;PMS_P1;PMS_P2;Temp;Humidity;BMP_temperature;BMP_pressure;BME280_temperature;BME280_humidity;BME280_pressure;Samples;Min_cycle;Max_cycle;Signal;HPM_P1;HPM_P2
2021/06/16 00:02:25;;;;;;;12.03;2.42;;;;;;;17.10;95.73;99459.17;1783537;80;21291;-77
2021/06/16 00:05:34;;;;;;;6.90;2.40;;;;;;;17.13;95.79;99459.25;1783573;80;21394;-79
2021/06/16 00:08:38;;;;;;;3.17;2.33;;;;;;;17.17;95.80;99456.83;1785131;80;21264;-77
2021/06/16 00:11:44;;;;;;;4.08;2.55;;;;;;;17.18;95.70;99453.00;1785089;80;21189;-77
2021/06/16 00:14:51;;;;;;;4.25;2.47;;;;;;;17.20;95.69;99449.45;1783492;80;21727;-78
2021/06/16 00:17:58;;;;;;;6.28;2.87;;;;;;;17.20;95.54;99443.92;1785048;80;21315;-78
2021/06/16 00:21:04;;;;;;;3.72;2.52;;;;;;;17.21;95.44;99447.81;1785078;80;22724;-78
2021/06/16 00:24:09;;;;;;;4.87;2.62;;;;;;;17.22;95.24;99438.47;1785027;80;21169;-78
2021/06/16 00:27:14;;;;;;;6.08;2.42;;;;;;;17.22;95.02;99443.99;1785112;80;21295;-78
2021/06/16 00:30:22;;;;;;;11.70;3.47;;;;;;;17.20;94.91;99439.77;1783690;80;21343;-78
2021/06/16 00:33:27;;;;;;;9.00;2.92;;;;;;;17.18;94.95;99446.94;1785258;80;21300;-77
2021/06/16 00:36:32;;;;;;;7.72;2.77;;;;;;;17.17;94.89;99443.01;1783573;80;21307;-78
2021/06/16 00:39:37;;;;;;;3.08;2.52;;;;;;;17.19;94.99;99453.30;1783672;80;21320;-78
2021/06/16 00:42:43;;;;;;;6.55;3.25;;;;;;;17.22;94.89;99449.52;1785095;80;21327;-77
2021/06/16 00:45:49;;;;;;;7.08;2.80;;;;;;;17.23;94.74;99455.34;1784266;80;21371;-78
2021/06/16 00:48:55;;;;;;;4.00;2.60;;;;;;;17.23;94.74;99449.81;1783499;80;22507;-78
2021/06/16 00:51:59;;;;;;;11.20;2.77;;;;;;;17.23;94.79;99446.21;1783549;80;21283;-77
2021/06/16 00:55:06;;;;;;;17.40;2.80;;;;;;;17.22;94.81;99445.89;1783369;80;21192;-77
2021/06/16 00:58:13;;;;;;;4.55;2.67;;;;;;;17.21;94.93;99443.67;1785037;80;21361;-78
2021/06/16 01:01:34;;;;;;;8.75;2.62;;;;;;;17.21;94.97;99438.69;1784963;80;21300;-78
2021/06/16 01:04:40;;;;;;;8.50;3.40;;;;;;;17.20;95.01;99426.80;1785036;80;21891;-78
2021/06/16 01:07:50;;;;;;;11.85;3.40;;;;;;;17.21;95.02;99431.77;1785386;80;21312;-77
2021/06/16 01:10:57;;;;;;;6.95;3.22;;;;;;;17.22;94.89;99438.98;1784456;80;21913;-78
2021/06/16 01:14:02;;;;;;;6.03;3.55;;;;;;;17.21;94.84;99441.45;1784960;80;21843;-78
2021/06/16 01:17:10;;;;;;;6.60;3.00;;;;;;;17.19;94.87;99449.16;1783930;80;21200;-78
2021/06/16 01:20:39;;;;;;;9.50;2.90;;;;;;;17.16;95.10;99453.77;1785609;80;21362;-78
2021/06/16 01:23:51;;;;;;;3.80;2.75;;;;;;;17.16;95.06;99459.29;1785063;80;21153;-79
2021/06/16 01:26:59;;;;;;;8.58;2.98;;;;;;;17.13;95.05;99456.48;1783700;80;21319;-78
2021/06/16 01:30:05;;;;;;;7.35;2.30;;;;;;;17.11;95.05;99443.43;1783541;80;21322;-78
2021/06/16 01:33:13;;;;;;;15.68;3.60;;;;;;;17.09;95.11;99453.35;1785009;80;21847;-78
2021/06/16 01:36:19;;;;;;;16.05;3.40;;;;;;;17.07;95.17;99453.27;1783540;80;21176;-78
2021/06/16 01:39:32;;;;;;;7.03;2.85;;;;;;;17.06;95.45;99457.97;1784885;80;21581;-77
2021/06/16 01:42:38;;;;;;;10.82;3.22;;;;;;;17.10;95.67;99464.70;1784903;80;21291;-77
2021/06/16 01:45:44;;;;;;;6.00;3.10;;;;;;;17.15;95.79;99476.95;1783493;80;21319;-78
2021/06/16 01:48:51;;;;;;;5.17;3.20;;;;;;;17.20;95.96;99488.13;1784871;80;21292;-78
2021/06/16 01:51:57;;;;;;;12.98;2.65;;;;;;;17.25;95.82;99481.34;1785027;80;22465;-78
2021/06/16 01:55:03;;;;;;;8.80;3.20;;;;;;;17.31;96.00;99476.23;1783894;80;21735;-77
2021/06/16 01:58:09;;;;;;;9.35;3.20;;;;;;;17.37;95.76;99460.09;1771079;81;21875;-78
2021/06/16 02:01:14;;;;;;;5.10;3.27;;;;;;;17.43;95.56;99463.80;1771189;81;21318;-77
2021/06/16 02:04:20;;;;;;;12.75;3.72;;;;;;;17.45;95.24;99473.52;1762639;81;21300;-78
2021/06/16 02:07:29;;;;;;;12.82;3.47;;;;;;;17.48;95.05;99486.03;1770039;81;21375;-77
2021/06/16 02:10:48;;;;;;;11.23;3.60;;;;;;;17.51;94.85;99498.84;1771410;81;21342;-77
2021/06/16 02:13:58;;;;;;;11.90;4.77;;;;;;;17.52;94.67;99499.13;1771403;81;21202;-77
2021/06/16 02:17:16;;;;;;;6.83;3.85;;;;;;;17.59;94.70;99501.21;1770518;81;21291;-78
2021/06/16 02:20:22;;;;;;;8.43;3.45;;;;;;;17.66;94.46;99508.56;1771230;81;21272;-78
2021/06/16 02:23:29;;;;;;;21.82;3.72;;;;;;;17.72;94.21;99517.27;1769729;81;21869;-78
2021/06/16 02:26:34;;;;;;;10.48;3.35;;;;;;;17.76;93.92;99516.57;1771210;81;21348;-77
2021/06/16 02:29:39;;;;;;;15.70;3.65;;;;;;;17.81;93.64;99514.46;1770306;81;21260;-78
2021/06/16 02:32:44;;;;;;;10.78;3.40;;;;;;;17.79;93.52;99510.56;1771177;81;21816;-78
2021/06/16 02:35:49;;;;;;;6.70;3.00;;;;;;;17.81;93.75;99500.63;1771185;81;21345;-78
2021/06/16 02:38:55;;;;;;;9.58;3.22;;;;;;;17.81;93.71;99517.23;1771242;81;21161;-78
2021/06/16 02:42:00;;;;;;;6.35;2.90;;;;;;;17.78;93.85;99523.23;1770902;81;21646;-78
2021/06/16 02:45:09;;;;;;;12.43;3.42;;;;;;;17.81;94.13;99529.67;1769832;81;21763;-78
2021/06/16 02:48:15;;;;;;;7.67;3.70;;;;;;;17.82;94.42;99539.10;1769964;81;21732;-78
2021/06/16 02:51:19;;;;;;;7.50;3.12;;;;;;;17.86;94.69;99531.17;1771249;81;21302;-78
2021/06/16 02:54:24;;;;;;;6.60;3.10;;;;;;;17.91;94.78;99534.05;1769951;81;21269;-78
2021/06/16 02:57:31;;;;;;;6.78;3.05;;;;;;;17.92;94.61;99537.10;1779484;80;21335;-78
2021/06/16 03:00:36;;;;;;;14.73;3.55;;;;;;;17.92;94.76;99544.02;1783501;80;21317;-78
2021/06/16 03:03:41;;;;;;;10.98;3.30;;;;;;;17.99;95.04;99543.91;1784903;80;21283;-78
2021/06/16 03:06:48;;;;;;;10.08;3.55;;;;;;;18.11;95.03;99549.73;1784827;80;21323;-78
2021/06/16 03:09:54;;;;;;;7.92;3.30;;;;;;;18.21;94.74;99549.61;1784063;80;21315;-78
2021/06/16 03:13:01;;;;;;;7.62;3.40;;;;;;;18.27;94.17;99548.11;1765623;80;21818;-77
2021/06/16 03:16:07;;;;;;;12.58;3.47;;;;;;;18.30;93.89;99542.09;1783418;80;21223;-77
2021/06/16 03:19:13;;;;;;;14.50;3.50;;;;;;;18.40;94.07;99548.38;1784905;80;21292;-77
2021/06/16 03:22:19;;;;;;;8.75;3.45;;;;;;;18.48;93.77;99554.89;1769639;80;21164;-76
2021/06/16 03:25:25;;;;;;;5.45;3.58;;;;;;;18.52;93.38;99551.09;1776603;80;21279;-77
2021/06/16 03:28:32;;;;;;;10.03;3.90;;;;;;;18.51;93.31;99548.03;1783603;80;21236;-78
2021/06/16 03:31:37;;;;;;;12.73;4.03;;;;;;;18.49;93.39;99546.03;1784961;80;21358;-77
2021/06/16 03:34:46;;;;;;;8.25;4.17;;;;;;;18.53;93.71;99538.38;1776361;80;21275;-77
2021/06/16 03:37:51;;;;;;;9.15;4.33;;;;;;;18.68;93.78;99535.60;1780461;80;21647;-77
2021/06/16 03:40:56;;;;;;;8.63;4.65;;;;;;;18.91;93.15;99529.97;1784620;80;21180;-77
2021/06/16 03:44:00;;;;;;;9.90;5.85;;;;;;;19.16;92.21;99529.59;1766846;80;21615;-77
2021/06/16 03:47:07;;;;;;;11.68;6.00;;;;;;;19.27;91.23;99535.59;1753761;82;21283;-77
2021/06/16 03:50:15;;;;;;;17.10;6.85;;;;;;;19.46;90.92;99536.72;1756150;80;21177;-77
2021/06/16 03:53:21;;;;;;;16.12;8.73;;;;;;;19.65;89.82;99539.55;1764951;80;21275;-77
2021/06/16 03:56:30;;;;;;;19.05;9.98;;;;;;;19.79;88.83;99551.13;1767557;80;21145;-77
2021/06/16 03:59:35;;;;;;;22.25;8.40;;;;;;;19.86;88.37;99556.80;1771816;80;21851;-77
2021/06/16 04:02:40;;;;;;;12.00;7.42;;;;;;;19.98;87.86;99560.00;1766557;80;21244;-77
2021/06/16 04:05:45;;;;;;;15.60;7.55;;;;;;;20.07;87.01;99564.86;1771636;80;21795;-77
2021/06/16 04:08:52;;;;;;;16.23;8.20;;;;;;;20.18;87.07;99568.60;1766744;80;21837;-77
2021/06/16 04:11:57;;;;;;;18.17;9.80;;;;;;;20.22;86.19;99561.44;1778399;80;21887;-77
2021/06/16 04:15:04;;;;;;;20.52;10.55;;;;;;;20.10;86.03;99551.02;1772558;80;21718;-77
2021/06/16 04:18:10;;;;;;;29.12;14.58;;;;;;;20.13;86.96;99559.66;1767963;80;21315;-77
2021/06/16 04:21:16;;;;;;;25.77;14.05;;;;;;;20.19;86.91;99559.75;1769957;80;21247;-77
2021/06/16 04:24:22;;;;;;;30.23;15.23;;;;;;;20.15;86.96;99553.31;1770476;80;21137;-77
2021/06/16 04:27:28;;;;;;;28.77;14.55;;;;;;;20.13;87.22;99556.04;1766846;80;21251;-77
2021/06/16 04:30:34;;;;;;;31.85;14.07;;;;;;;20.14;87.21;99564.14;1769463;80;21298;-78
2021/06/16 04:33:39;;;;;;;27.22;13.50;;;;;;;20.10;87.23;99574.07;1769864;80;21272;-76
2021/06/16 04:36:45;;;;;;;18.85;11.65;;;;;;;20.00;87.78;99573.94;1770828;80;21169;-77
2021/06/16 04:39:52;;;;;;;34.35;12.18;;;;;;;19.94;87.94;99569.94;1759643;80;21291;-77
2021/06/16 04:43:10;;;;;;;20.43;10.25;;;;;;;19.83;88.60;99570.34;1767558;80;21318;-77
2021/06/16 04:46:16;;;;;;;16.42;9.38;;;;;;;19.78;89.34;99567.49;1766615;80;21275;-77
2021/06/16 04:49:22;;;;;;;18.17;10.18;;;;;;;19.75;89.80;99558.28;1779713;80;21815;-77
2021/06/16 04:52:29;;;;;;;17.48;9.08;;;;;;;19.81;90.33;99555.34;1769085;80;21718;-77
2021/06/16 04:55:35;;;;;;;21.20;10.78;;;;;;;19.99;90.60;99558.91;1769093;80;21811;-77
2021/06/16 04:58:41;;;;;;;22.05;10.28;;;;;;;20.08;90.16;99558.20;1759789;80;21351;-77
2021/06/16 05:01:47;;;;;;;27.15;12.70;;;;;;;20.20;90.00;99565.03;1753958;81;21331;-77
2021/06/16 05:04:52;;;;;;;35.08;16.97;;;;;;;20.48;90.13;99564.03;1756808;81;21292;-77
2021/06/16 05:07:57;;;;;;;43.00;17.40;;;;;;;20.77;88.78;99570.75;1744266;81;21312;-78
2021/06/16 05:11:04;;;;;;;38.78;16.70;;;;;;;21.08;87.20;99562.19;1739757;82;21320;-77
2021/06/16 05:14:10;;;;;;;42.13;21.10;;;;;;;21.33;86.01;99565.78;1759073;81;21339;-78
2021/06/16 05:17:17;;;;;;;39.78;19.87;;;;;;;21.54;84.59;99571.78;1711243;82;21862;-78
2021/06/16 05:20:22;;;;;;;58.38;26.77;;;;;;;21.79;82.82;99567.53;1751269;81;21284;-78
2021/06/16 05:23:29;;;;;;;62.23;26.95;;;;;;;21.88;80.80;99567.31;1755091;81;21197;-78
2021/06/16 05:26:35;;;;;;;67.87;32.23;;;;;;;22.04;81.23;99579.38;1749499;81;21308;-78
2021/06/16 05:29:40;;;;;;;62.75;31.80;;;;;;;22.23;81.03;99584.80;1753052;81;21854;-77
2021/06/16 05:32:46;;;;;;;64.45;32.83;;;;;;;22.32;79.45;99590.70;1753658;81;21291;-78
2021/06/16 05:35:52;;;;;;;67.58;33.78;;;;;;;22.28;78.65;99601.54;1754747;81;21181;-77
2021/06/16 05:38:58;;;;;;;56.95;29.42;;;;;;;22.12;78.40;99606.76;1716664;82;21189;-78
2021/06/16 05:42:04;;;;;;;54.60;28.17;;;;;;;22.07;79.23;99622.02;1756014;81;21367;-78
2021/06/16 05:45:09;;;;;;;49.03;25.62;;;;;;;22.16;79.23;99624.58;1746119;79;21343;-79
2021/06/16 05:48:15;;;;;;;46.90;22.13;;;;;;;22.30;77.70;99631.91;1743923;81;21312;-78
2021/06/16 05:51:20;;;;;;;38.33;19.85;;;;;;;22.20;76.21;99638.25;1759060;79;21489;-78
2021/06/16 05:54:27;;;;;;;29.18;15.40;;;;;;;21.98;76.20;99641.16;1748297;79;21304;-78
2021/06/16 05:57:32;;;;;;;28.70;14.18;;;;;;;21.85;77.03;99636.05;1752037;80;21324;-78
2021/06/16 06:00:41;;;;;;;31.30;12.60;;;;;;;21.80;77.92;99635.45;1725443;82;21874;-76
2021/06/16 06:03:47;;;;;;;10.63;4.50;;;;;;;21.81;78.88;99637.68;1706232;82;21401;-78
2021/06/16 06:06:51;;;;;;;8.93;4.03;;;;;;;21.80;78.77;99645.75;1722255;81;21346;-78
2021/06/16 06:09:56;;;;;;;8.38;3.75;;;;;;;21.69;79.03;99643.45;1705426;83;21311;-78
2021/06/16 06:13:04;;;;;;;6.33;2.02;;;;;;;21.61;79.69;99635.02;1724532;82;21283;-78
2021/06/16 06:16:11;;;;;;;4.20;1.92;;;;;;;21.67;79.48;99633.95;1704929;82;21328;-77
2021/06/16 06:19:19;;;;;;;3.52;1.70;;;;;;;21.89;78.70;99624.66;1702261;82;21316;-76
2021/06/16 06:22:24;;;;;;;5.95;1.85;;;;;;;22.12;76.38;99621.52;1704159;82;21791;-78
2021/06/16 06:25:31;;;;;;;4.00;1.37;;;;;;;22.28;74.98;99626.61;1701727;83;21580;-78
2021/06/16 06:28:39;;;;;;;4.12;1.30;;;;;;;22.42;75.37;99625.02;1713642;81;21331;-79
2021/06/16 06:31:44;;;;;;;8.55;1.57;;;;;;;22.62;75.00;99627.05;1711450;81;21681;-79
2021/06/16 06:34:45;;;;;;;5.55;1.52;;;;;;;22.88;74.15;99632.19;1711150;83;21200;-79
2021/06/16 06:37:37;;;;;;;4.30;1.82;;;;;;;23.09;73.50;99636.45;1712463;83;21391;-78
2021/06/16 06:40:23;;;;;;;7.05;1.85;;;;;;;23.18;73.60;99638.42;1711824;83;21868;-78
2021/06/16 06:43:16;;;;;;;3.12;1.35;;;;;;;23.43;73.17;99636.78;1711898;82;21295;-78
2021/06/16 06:46:01;;;;;;;6.25;1.80;;;;;;;23.68;71.38;99637.42;1709527;83;21327;-79
2021/06/16 06:49:08;;;;;;;2.77;1.27;;;;;;;23.82;70.11;99639.92;1722217;81;21311;-78
2021/06/16 06:52:15;;;;;;;4.87;1.45;;;;;;;23.89;70.90;99646.61;1713389;81;22353;-78
2021/06/16 06:55:20;;;;;;;4.60;1.98;;;;;;;24.04;71.70;99649.95;1724121;81;22188;-78
2021/06/16 06:58:25;;;;;;;6.28;1.72;;;;;;;24.23;71.06;99652.45;1726912;81;21881;-78
2021/06/16 07:01:31;;;;;;;7.35;1.45;;;;;;;24.29;69.48;99656.08;1697749;83;21274;-78
2021/06/16 07:04:36;;;;;;;3.10;1.32;;;;;;;24.00;69.73;99660.87;1756448;81;21842;-78
2021/06/16 07:07:41;;;;;;;3.65;1.70;;;;;;;23.57;69.87;99658.88;1751663;79;21831;-78
2021/06/16 07:10:46;;;;;;;3.50;1.60;;;;;;;23.32;70.79;99671.38;1751976;81;21331;-78
2021/06/16 07:13:53;;;;;;;9.13;1.87;;;;;;;23.06;72.21;99679.69;1753638;81;21237;-78
2021/06/16 07:16:59;;;;;;;6.33;2.12;;;;;;;22.83;72.09;99685.70;1749852;81;21810;-78
2021/06/16 07:20:08;;;;;;;3.12;1.37;;;;;;;22.63;73.00;99690.08;1752306;81;21315;-78
2021/06/16 07:23:13;;;;;;;4.03;1.55;;;;;;;22.54;73.65;99693.64;1751771;81;21307;-79
2021/06/16 07:26:20;;;;;;;4.17;1.50;;;;;;;22.40;73.94;99699.69;1750859;79;21626;-78
2021/06/16 07:29:26;;;;;;;8.88;2.15;;;;;;;22.31;74.61;99699.07;1752819;81;21221;-77
2021/06/16 07:32:32;;;;;;;3.87;1.52;;;;;;;22.29;75.02;99691.52;1746219;81;21255;-79
2021/06/16 07:35:37;;;;;;;3.47;1.47;;;;;;;22.25;75.41;99693.99;1753169;81;21201;-78
2021/06/16 07:38:43;;;;;;;9.08;1.70;;;;;;;22.28;75.64;99696.25;1754705;81;21248;-78
2021/06/16 07:41:49;;;;;;;3.92;1.87;;;;;;;22.33;75.22;99694.05;1750004;79;21319;-78
2021/06/16 07:44:55;;;;;;;2.62;1.47;;;;;;;22.30;74.51;99710.77;1753500;79;21830;-78
2021/06/16 07:48:00;;;;;;;6.47;1.62;;;;;;;22.27;74.09;99714.64;1753296;81;21232;-78
2021/06/16 07:51:06;;;;;;;8.88;2.00;;;;;;;22.16;74.09;99718.75;1721001;81;21358;-78
2021/06/16 07:54:12;;;;;;;3.77;1.67;;;;;;;22.10;74.31;99719.76;1750597;79;21316;-77
2021/06/16 07:57:18;;;;;;;4.00;1.77;;;;;;;22.07;74.44;99729.22;1752799;81;21338;-78
2021/06/16 08:00:24;;;;;;;5.70;2.00;;;;;;;22.05;74.58;99728.08;1750381;81;21594;-78
2021/06/16 08:03:29;;;;;;;3.95;1.85;;;;;;;21.96;74.92;99735.23;1752095;80;21161;-78
2021/06/16 08:06:35;;;;;;;8.70;2.90;;;;;;;21.78;76.46;99745.36;1756083;81;21336;-78
2021/06/16 08:09:42;;;;;;;5.92;1.98;;;;;;;21.59;76.88;99745.73;1753614;81;21403;-77
2021/06/16 08:12:47;;;;;;;5.90;2.47;;;;;;;21.45;77.53;99744.47;1756131;81;21197;-78
2021/06/16 08:15:53;;;;;;;5.28;2.10;;;;;;;21.31;78.05;99743.20;1751355;79;21252;-78
2021/06/16 08:18:59;;;;;;;7.17;2.30;;;;;;;21.15;78.41;99739.38;1754565;81;21233;-78
2021/06/16 08:22:04;;;;;;;7.35;2.60;;;;;;;21.01;79.26;99741.70;1753826;81;21347;-78
2021/06/16 08:25:14;;;;;;;9.05;2.35;;;;;;;20.93;80.21;99746.31;1752568;79;21350;-78
2021/06/16 08:28:17;;;;;;;9.78;2.30;;;;;;;20.87;81.04;99742.63;1754995;79;21346;-78
2021/06/16 08:31:24;;;;;;;6.37;2.10;;;;;;;20.89;81.95;99741.01;1752790;81;21252;-78
2021/06/16 08:34:29;;;;;;;3.52;1.90;;;;;;;20.95;81.82;99737.73;1748063;81;21335;-78
2021/06/16 08:37:36;;;;;;;3.22;1.75;;;;;;;21.08;81.50;99742.91;1754424;81;21256;-78
2021/06/16 08:40:42;;;;;;;7.65;2.30;;;;;;;21.14;80.86;99746.88;1751129;81;21590;-78
2021/06/16 08:43:51;;;;;;;6.78;2.75;;;;;;;21.16;81.18;99754.95;1750687;79;21276;-78
2021/06/16 08:46:57;;;;;;;8.83;2.63;;;;;;;21.12;81.73;99750.45;1755298;79;21273;-78
2021/06/16 08:50:02;;;;;;;9.40;2.05;;;;;;;21.19;82.27;99755.28;1741382;81;21240;-78
2021/06/16 08:53:10;;;;;;;5.45;2.30;;;;;;;21.29;82.28;99756.50;1745106;80;21918;-78
2021/06/16 08:56:16;;;;;;;9.18;2.35;;;;;;;21.37;82.41;99763.88;1748756;79;21224;-78
2021/06/16 08:59:22;;;;;;;5.62;2.17;;;;;;;21.43;82.21;99760.59;1749109;81;21558;-78
2021/06/16 09:02:27;;;;;;;6.75;3.05;;;;;;;21.49;81.47;99755.37;1748851;79;21326;-79
2021/06/16 09:05:47;;;;;;;9.88;3.20;;;;;;;21.52;80.48;99746.51;1713475;82;21184;-78
2021/06/16 09:09:01;;;;;;;5.45;2.22;;;;;;;21.57;80.03;99739.60;1750404;79;21333;-79
2021/06/16 09:12:09;;;;;;;6.87;2.17;;;;;;;21.72;80.39;99738.08;1754352;79;21347;-78
2021/06/16 09:15:24;;;;;;;4.12;2.08;;;;;;;21.84;79.76;99731.25;1755399;79;21205;-78
2021/06/16 09:18:51;;;;;;;5.50;2.30;;;;;;;21.91;79.62;99743.55;1749057;79;21884;-79
2021/06/16 09:22:10;;;;;;;4.80;2.20;;;;;;;21.92;79.05;99750.27;1739423;81;21205;-79
2021/06/16 09:25:17;;;;;;;4.42;2.47;;;;;;;21.88;79.09;99745.48;1752581;81;21248;-78
2021/06/16 09:28:23;;;;;;;4.03;2.20;;;;;;;21.79;78.82;99714.50;1750833;79;21374;-77
2021/06/16 09:31:31;;;;;;;4.65;2.65;;;;;;;21.82;78.79;99706.16;1746721;81;21792;-78
2021/06/16 09:34:38;;;;;;;6.95;2.45;;;;;;;21.90;78.53;99707.07;1745160;81;21299;-79
2021/06/16 09:37:48;;;;;;;3.75;1.62;;;;;;;22.01;77.92;99711.61;1711978;82;21374;-78
2021/06/16 09:40:57;;;;;;;5.92;1.65;;;;;;;22.17;77.70;99713.45;1748510;81;21589;-77
2021/06/16 09:44:04;;;;;;;4.20;1.65;;;;;;;22.34;77.62;99712.44;1735535;81;21267;-78
2021/06/16 09:47:31;;;;;;;3.20;1.60;;;;;;;22.56;77.34;99717.89;1736085;81;21284;-78
2021/06/16 09:50:38;;;;;;;3.33;1.90;;;;;;;22.83;76.50;99713.02;1746771;79;21355;-79
2021/06/16 09:54:18;;;;;;;3.40;1.90;;;;;;;23.17;76.55;99710.68;1752509;81;21250;-78
2021/06/16 09:57:24;;;;;;;2.33;1.47;;;;;;;23.40;75.62;99715.50;1751092;81;21977;-79
2021/06/16 10:00:43;;;;;;;4.60;1.62;;;;;;;23.59;74.82;99715.81;1745471;80;21498;-77
2021/06/16 10:03:47;;;;;;;3.67;1.40;;;;;;;23.75;74.17;99709.72;1752338;80;21312;-78
2021/06/16 10:06:53;;;;;;;4.42;1.52;;;;;;;23.92;71.56;99710.30;1768145;80;21814;-79
2021/06/16 10:10:03;;;;;;;7.35;1.55;;;;;;;23.91;71.13;99710.02;1768442;80;21204;-79
2021/06/16 10:13:09;;;;;;;4.00;1.52;;;;;;;23.86;70.12;99723.98;1767054;80;21239;-79
2021/06/16 10:16:16;;;;;;;2.10;1.50;;;;;;;23.81;69.63;99727.61;1721447;80;21212;-79
2021/06/16 10:19:26;;;;;;;3.15;1.40;;;;;;;23.68;68.19;99733.17;1713881;80;21203;-79
2021/06/16 10:22:35;;;;;;;1.42;1.07;;;;;;;23.58;68.61;99733.13;1753141;80;21303;-79
2021/06/16 10:25:40;;;;;;;2.55;1.50;;;;;;;23.52;68.30;99743.98;1768061;80;21342;-79
2021/06/16 10:28:52;;;;;;;3.22;1.52;;;;;;;23.40;68.25;99744.80;1752728;80;21211;-78
2021/06/16 10:31:57;;;;;;;3.90;1.20;;;;;;;23.25;68.07;99746.98;1764902;80;21835;-79
2021/06/16 10:35:04;;;;;;;2.85;1.20;;;;;;;23.17;68.75;99752.52;1765762;80;21314;-79
2021/06/16 10:38:23;;;;;;;2.80;1.12;;;;;;;23.19;69.43;99755.86;1764577;80;21298;-79
2021/06/16 10:41:47;;;;;;;0.80;0.80;;;;;;;23.30;68.86;99753.14;1766704;80;21326;-78
2021/06/16 10:44:53;;;;;;;1.17;1.00;;;;;;;23.39;66.17;99754.29;1768854;80;21140;-79
2021/06/16 10:48:06;;;;;;;1.65;0.80;;;;;;;23.54;65.24;99757.67;1741754;80;21314;-77
2021/06/16 10:51:13;;;;;;;3.35;1.00;;;;;;;23.71;65.46;99756.89;1765873;80;21306;-78
2021/06/16 10:54:30;;;;;;;1.45;0.90;;;;;;;23.84;64.51;99756.92;1764338;80;21625;-78
2021/06/16 10:57:37;;;;;;;2.05;0.82;;;;;;;23.87;63.55;99759.17;1773688;80;21224;-78
2021/06/16 11:00:43;;;;;;;3.12;0.80;;;;;;;23.84;63.41;99756.92;1768772;79;21305;-78
2021/06/16 11:04:03;;;;;;;1.57;0.90;;;;;;;23.87;62.28;99750.79;1765703;79;21220;-77
2021/06/16 11:07:08;;;;;;;0.72;0.72;;;;;;;23.86;61.19;99743.53;1762867;79;21236;-78
2021/06/16 11:10:14;;;;;;;1.95;0.80;;;;;;;23.80;60.01;99750.20;1754843;81;21361;-78
2021/06/16 11:13:42;;;;;;;1.00;0.88;;;;;;;23.82;60.70;99756.38;1753868;81;21303;-79
2021/06/16 11:16:52;;;;;;;2.02;0.80;;;;;;;23.94;60.05;99746.59;1695445;82;21334;-78
2021/06/16 11:20:05;;;;;;;1.55;0.95;;;;;;;24.02;59.43;99741.02;1689434;84;21387;-78
2021/06/16 11:23:11;;;;;;;1.27;0.78;;;;;;;24.09;59.33;99742.13;1697719;83;21190;-79
2021/06/16 11:26:39;;;;;;;2.20;0.90;;;;;;;24.17;60.45;99734.02;1704754;83;22006;-78
2021/06/16 11:30:14;;;;;;;2.02;0.90;;;;;;;24.23;60.65;99730.13;1701158;84;21201;-79
2021/06/16 11:33:31;;;;;;;1.60;0.90;;;;;;;24.31;59.75;99727.88;1708364;82;21188;-79
2021/06/16 11:36:45;;;;;;;2.12;0.90;;;;;;;24.36;59.00;99726.47;1714636;82;21294;-80
2021/06/16 11:39:51;;;;;;;2.35;1.12;;;;;;;24.37;58.63;99725.38;1719105;82;21223;-79
2021/06/16 11:42:56;;;;;;;6.55;0.93;;;;;;;24.35;58.31;99724.80;1720235;82;21411;-78
2021/06/16 11:46:02;;;;;;;0.90;0.80;;;;;;;24.35;57.78;99718.65;1698204;82;21385;-78
2021/06/16 11:49:17;;;;;;;5.53;1.20;;;;;;;24.36;58.26;99714.76;1692395;83;21368;-78
2021/06/16 11:52:26;;;;;;;3.00;1.00;;;;;;;24.25;58.39;99713.64;1700269;83;21364;-78
2021/06/16 11:55:54;;;;;;;1.72;1.02;;;;;;;24.19;58.65;99704.43;1697180;83;21843;-78
2021/06/16 11:59:00;;;;;;;1.65;1.07;;;;;;;24.09;59.33;99716.45;1629642;87;21282;-78
2021/06/16 12:02:35;;;;;;;4.40;1.00;;;;;;;23.73;59.73;99718.94;1721016;82;21370;-78
2021/06/16 12:05:40;;;;;;;2.47;1.00;;;;;;;23.50;60.62;99724.45;1699061;83;21218;-78
2021/06/16 12:08:45;;;;;;;1.05;0.95;;;;;;;23.40;60.64;99723.87;1693480;83;21352;-78
2021/06/16 12:11:51;;;;;;;2.27;1.20;;;;;;;23.32;61.06;99720.21;1717223;82;21339;-78
2021/06/16 12:15:00;;;;;;;4.03;1.40;;;;;;;23.37;62.13;99721.62;1723585;82;21264;-78
2021/06/16 12:18:12;;;;;;;5.62;2.08;;;;;;;23.52;62.22;99716.06;1725766;82;21299;-78
2021/06/16 12:21:15;;;;;;;;;;;;;;;23.63;61.83;99716.95;1730581;82;21251;-78
2021/06/16 12:24:27;;;;;;;3.75;2.10;;;;;;;23.53;60.73;99720.55;1678607;83;20315;-78
2021/06/16 12:27:33;;;;;;;3.75;2.20;;;;;;;23.40;60.91;99711.31;1707629;83;21173;-78
2021/06/16 12:30:40;;;;;;;8.55;4.10;;;;;;;23.32;60.01;99711.28;1672626;82;21298;-78
2021/06/16 12:37:13;;;;;;;14.60;7.10;;;;;;;23.31;59.38;99710.17;1720195;82;21303;-78
2021/06/16 12:40:18;;;;;;;14.83;6.95;;;;;;;23.43;58.65;99712.13;1718658;82;21208;-78
2021/06/16 12:43:31;;;;;;;21.27;11.25;;;;;;;23.54;59.92;99712.45;1720128;82;21530;-78
2021/06/16 12:46:36;;;;;;;23.50;12.73;;;;;;;23.66;58.66;99707.47;1721369;82;21315;-78
2021/06/16 12:49:56;;;;;;;23.65;11.93;;;;;;;23.74;59.75;99705.26;1721445;82;21295;-78
2021/06/16 12:53:01;;;;;;;30.45;12.28;;;;;;;23.73;58.98;99708.61;1717144;82;21826;-78
2021/06/16 12:56:08;;;;;;;20.02;10.93;;;;;;;23.70;57.99;99706.36;1719563;82;21320;-79
2021/06/16 12:59:13;;;;;;;26.20;13.45;;;;;;;23.68;58.33;99708.05;1718037;82;21219;-79
2021/06/16 13:02:35;;;;;;;23.12;11.05;;;;;;;23.66;57.94;99701.88;1714971;82;21736;-78
2021/06/16 13:05:41;;;;;;;30.37;11.28;;;;;;;23.67;58.38;99707.77;1719371;82;21309;-78
2021/06/16 13:08:49;;;;;;;30.08;12.50;;;;;;;23.63;57.85;99706.61;1723436;82;21839;-78
2021/06/16 13:11:55;;;;;;;22.15;11.03;;;;;;;23.61;58.35;99706.03;1716020;82;21766;-78
2021/06/16 13:15:12;;;;;;;21.25;11.43;;;;;;;23.66;57.14;99698.25;1714322;82;21335;-78
2021/06/16 13:18:29;;;;;;;26.48;11.40;;;;;;;23.64;58.38;99698.55;1718249;82;21331;-78
2021/06/16 13:21:34;;;;;;;26.50;11.63;;;;;;;23.68;58.11;99704.42;1715446;83;21311;-78
2021/06/16 13:24:40;;;;;;;25.85;12.20;;;;;;;23.70;57.26;99704.41;1716932;82;21156;-78
2021/06/16 13:28:06;;;;;;;28.73;11.33;;;;;;;23.69;57.48;99694.36;1715257;83;21733;-78
2021/06/16 13:31:15;;;;;;;20.43;9.50;;;;;;;23.72;58.00;99697.17;1716805;82;21228;-78
2021/06/16 13:34:20;;;;;;;20.25;9.68;;;;;;;23.77;59.15;99700.52;1714342;83;21184;-78
2021/06/16 13:37:25;;;;;;;19.98;10.78;;;;;;;23.76;57.50;99694.63;1712671;83;22708;-77
2021/06/16 13:40:31;;;;;;;20.65;9.48;;;;;;;23.71;56.03;99691.28;1708157;82;21287;-78
2021/06/16 13:43:36;;;;;;;22.50;10.18;;;;;;;23.68;57.00;99691.86;1704246;84;21365;-78
2021/06/16 13:46:42;;;;;;;20.43;10.50;;;;;;;23.71;56.59;99687.09;1704516;84;21560;-79
2021/06/16 13:49:48;;;;;;;20.37;10.72;;;;;;;23.75;56.14;99684.59;1703995;84;21375;-78
2021/06/16 13:52:53;;;;;;;21.60;11.30;;;;;;;23.75;55.52;99683.19;1702796;84;21384;-79
2021/06/16 13:56:02;;;;;;;21.65;10.78;;;;;;;23.69;55.66;99683.19;1703794;84;21336;-78
2021/06/16 13:59:08;;;;;;;22.45;11.05;;;;;;;23.64;55.61;99688.77;1704849;83;21217;-77
2021/06/16 14:02:14;;;;;;;25.60;10.75;;;;;;;23.57;55.95;99690.98;1706003;84;21324;-79
2021/06/16 14:05:21;;;;;;;19.37;9.88;;;;;;;23.55;56.37;99689.00;1706031;84;21277;-78
2021/06/16 14:08:31;;;;;;;21.52;11.35;;;;;;;23.56;56.35;99696.81;1705164;84;21308;-77
2021/06/16 14:11:36;;;;;;;24.92;11.00;;;;;;;23.53;55.96;99688.45;1698487;84;21332;-78
2021/06/16 14:14:49;;;;;;;21.15;9.80;;;;;;;23.50;56.25;99690.39;1741428;82;21343;-79
2021/06/16 14:17:55;;;;;;;20.48;9.28;;;;;;;23.51;56.74;99691.23;1704334;84;21633;-78
2021/06/16 14:21:00;;;;;;;18.62;8.73;;;;;;;23.52;57.29;99687.31;1740629;82;21197;-78
2021/06/16 14:24:07;;;;;;;21.95;9.73;;;;;;;23.52;56.24;99690.95;1741355;82;21181;-78
2021/06/16 14:27:13;;;;;;;17.45;8.60;;;;;;;23.53;55.79;99683.44;1704964;84;21318;-78
2021/06/16 14:30:22;;;;;;;18.42;9.38;;;;;;;23.55;56.53;99684.82;1739472;82;21649;-78
2021/06/16 14:33:28;;;;;;;19.62;9.18;;;;;;;23.54;56.85;99673.37;1705353;84;21315;-78
2021/06/16 14:36:37;;;;;;;22.15;9.63;;;;;;;23.58;56.98;99678.69;1739458;81;21256;-78
2021/06/16 14:39:42;;;;;;;18.30;9.68;;;;;;;23.57;56.29;99678.42;1705197;84;21243;-78
2021/06/16 14:42:51;;;;;;;20.02;9.88;;;;;;;23.59;55.92;99680.92;1740707;82;21311;-78